sensor_id;sensor_type;location;lat;lon;timestamp;P1;durP1;ratioP1;P2;durP2;ratioP2
6185;SDS011;3126;52.738;8.316;2023-12-22T00:03:11;11.40;;;2.47;;
6185;SDS011;3126;52.738;8.316;2023-12-22T00:08:12;7.60;;;1.77;;
6185;SDS011;3126;52.738;8.316;2023-12-22T00:13:13;13.27;;;2.67;;
6185;SDS011;3126;52.738;8.316;2023-12-22T00:18:14;8.60;;;2.65;;
6185;SDS011;3126;52.738;8.316;2023-12-22T00:23:15;8.13;;;1.88;;
6185;SDS011;3126;52.738;8.316;2023-12-22T00:28:16;11.00;;;3.05;;
6185;SDS011;3126;52.738;8.316;2023-12-22T00:33:17;17.70;;;3.28;;
6185;SDS011;3126;52.738;8.316;2023-12-22T00:38:18;11.98;;;3.08;;
6185;SDS011;3126;52.738;8.316;2023-12-22T00:43:19;12.98;;;2.90;;
6185;SDS011;3126;52.738;8.316;2023-12-22T00:48:20;7.65;;;2.17;;
6185;SDS011;3126;52.738;8.316;2023-12-22T00:53:21;9.48;;;2.47;;
6185;SDS011;3126;52.738;8.316;2023-12-22T00:58:22;12.10;;;3.70;;
6185;SDS011;3126;52.738;8.316;2023-12-22T01:03:23;5.72;;;3.28;;
6185;SDS011;3126;52.738;8.316;2023-12-22T01:08:24;4.57;;;1.75;;
6185;SDS011;3126;52.738;8.316;2023-12-22T01:13:24;16.02;;;3.05;;
6185;SDS011;3126;52.738;8.316;2023-12-22T01:18:25;6.32;;;2.15;;
6185;SDS011;3126;52.738;8.316;2023-12-22T01:23:29;2.25;;;0.77;;
6185;SDS011;3126;52.738;8.316;2023-12-22T01:28:30;0.93;;;0.77;;
6185;SDS011;3126;52.738;8.316;2023-12-22T01:33:31;4.28;;;1.05;;
6185;SDS011;3126;52.738;8.316;2023-12-22T01:38:33;4.07;;;1.80;;
6185;SDS011;3126;52.738;8.316;2023-12-22T01:43:34;6.63;;;2.95;;
6185;SDS011;3126;52.738;8.316;2023-12-22T01:48:35;5.60;;;2.58;;
6185;SDS011;3126;52.738;8.316;2023-12-22T01:53:36;7.25;;;1.10;;
6185;SDS011;3126;52.738;8.316;2023-12-22T01:58:38;7.80;;;2.15;;
6185;SDS011;3126;52.738;8.316;2023-12-22T02:03:39;6.38;;;2.45;;
6185;SDS011;3126;52.738;8.316;2023-12-22T02:08:40;5.97;;;1.77;;
6185;SDS011;3126;52.738;8.316;2023-12-22T02:13:42;6.40;;;2.38;;
6185;SDS011;3126;52.738;8.316;2023-12-22T02:18:43;9.23;;;2.78;;
6185;SDS011;3126;52.738;8.316;2023-12-22T02:23:47;6.05;;;2.67;;
6185;SDS011;3126;52.738;8.316;2023-12-22T02:28:48;11.18;;;3.25;;
6185;SDS011;3126;52.738;8.316;2023-12-22T02:33:51;9.48;;;2.55;;
6185;SDS011;3126;52.738;8.316;2023-12-22T02:38:53;12.73;;;3.20;;
6185;SDS011;3126;52.738;8.316;2023-12-22T02:43:54;6.07;;;1.73;;
6185;SDS011;3126;52.738;8.316;2023-12-22T02:48:55;15.35;;;2.55;;
6185;SDS011;3126;52.738;8.316;2023-12-22T02:53:56;6.15;;;2.20;;
6185;SDS011;3126;52.738;8.316;2023-12-22T02:58:57;11.20;;;2.63;;
6185;SDS011;3126;52.738;8.316;2023-12-22T03:03:58;13.65;;;2.42;;
6185;SDS011;3126;52.738;8.316;2023-12-22T03:08:59;15.98;;;2.13;;
6185;SDS011;3126;52.738;8.316;2023-12-22T03:14:00;10.93;;;2.17;;
6185;SDS011;3126;52.738;8.316;2023-12-22T03:19:01;8.63;;;2.03;;
6185;SDS011;3126;52.738;8.316;2023-12-22T03:24:02;10.45;;;2.33;;
6185;SDS011;3126;52.738;8.316;2023-12-22T03:29:03;15.18;;;2.72;;
6185;SDS011;3126;52.738;8.316;2023-12-22T03:34:05;10.50;;;2.85;;
6185;SDS011;3126;52.738;8.316;2023-12-22T03:39:06;12.63;;;2.65;;
6185;SDS011;3126;52.738;8.316;2023-12-22T03:44:07;4.43;;;1.58;;
6185;SDS011;3126;52.738;8.316;2023-12-22T03:49:08;13.95;;;2.17;;
6185;SDS011;3126;52.738;8.316;2023-12-22T03:54:09;11.55;;;2.40;;
6185;SDS011;3126;52.738;8.316;2023-12-22T03:59:10;5.25;;;2.05;;
6185;SDS011;3126;52.738;8.316;2023-12-22T04:04:11;10.02;;;1.92;;
6185;SDS011;3126;52.738;8.316;2023-12-22T04:09:12;12.50;;;2.10;;
6185;SDS011;3126;52.738;8.316;2023-12-22T04:14:13;6.95;;;2.47;;
6185;SDS011;3126;52.738;8.316;2023-12-22T04:19:15;11.35;;;2.80;;
6185;SDS011;3126;52.738;8.316;2023-12-22T04:24:16;11.52;;;2.55;;
6185;SDS011;3126;52.738;8.316;2023-12-22T04:29:17;11.00;;;2.47;;
6185;SDS011;3126;52.738;8.316;2023-12-22T04:34:18;8.85;;;1.60;;
6185;SDS011;3126;52.738;8.316;2023-12-22T04:39:18;11.70;;;1.88;;
6185;SDS011;3126;52.738;8.316;2023-12-22T04:44:19;6.90;;;1.70;;
6185;SDS011;3126;52.738;8.316;2023-12-22T04:49:21;7.70;;;1.85;;
6185;SDS011;3126;52.738;8.316;2023-12-22T04:54:22;11.40;;;2.38;;
6185;SDS011;3126;52.738;8.316;2023-12-22T04:59:22;7.47;;;1.63;;
6185;SDS011;3126;52.738;8.316;2023-12-22T05:04:23;6.10;;;1.95;;
6185;SDS011;3126;52.738;8.316;2023-12-22T05:09:24;12.65;;;3.17;;
6185;SDS011;3126;52.738;8.316;2023-12-22T05:14:25;7.82;;;1.50;;
6185;SDS011;3126;52.738;8.316;2023-12-22T05:19:26;10.55;;;1.73;;
6185;SDS011;3126;52.738;8.316;2023-12-22T05:24:27;8.88;;;2.63;;
6185;SDS011;3126;52.738;8.316;2023-12-22T05:29:28;7.15;;;2.35;;
6185;SDS011;3126;52.738;8.316;2023-12-22T05:34:29;6.50;;;1.38;;
6185;SDS011;3126;52.738;8.316;2023-12-22T05:39:31;10.48;;;2.70;;
6185;SDS011;3126;52.738;8.316;2023-12-22T05:44:32;3.50;;;1.73;;
6185;SDS011;3126;52.738;8.316;2023-12-22T05:49:34;10.13;;;1.92;;
6185;SDS011;3126;52.738;8.316;2023-12-22T05:54:35;5.32;;;2.08;;
6185;SDS011;3126;52.738;8.316;2023-12-22T05:59:36;8.80;;;1.80;;
6185;SDS011;3126;52.738;8.316;2023-12-22T06:04:37;9.40;;;1.90;;
6185;SDS011;3126;52.738;8.316;2023-12-22T06:09:38;10.15;;;1.63;;
6185;SDS011;3126;52.738;8.316;2023-12-22T06:14:39;11.50;;;2.65;;
6185;SDS011;3126;52.738;8.316;2023-12-22T06:19:41;13.77;;;2.58;;
6185;SDS011;3126;52.738;8.316;2023-12-22T06:24:42;10.95;;;2.65;;
6185;SDS011;3126;52.738;8.316;2023-12-22T06:29:43;13.15;;;2.72;;
6185;SDS011;3126;52.738;8.316;2023-12-22T06:34:44;8.65;;;1.58;;
6185;SDS011;3126;52.738;8.316;2023-12-22T06:39:45;12.10;;;2.67;;
6185;SDS011;3126;52.738;8.316;2023-12-22T06:44:46;4.47;;;1.65;;
6185;SDS011;3126;52.738;8.316;2023-12-22T06:49:47;17.00;;;3.22;;
6185;SDS011;3126;52.738;8.316;2023-12-22T06:54:48;15.02;;;2.70;;
6185;SDS011;3126;52.738;8.316;2023-12-22T06:59:49;15.48;;;2.95;;
6185;SDS011;3126;52.738;8.316;2023-12-22T07:10:09;7.75;;;1.83;;
6185;SDS011;3126;52.738;8.316;2023-12-22T07:15:12;20.92;;;3.42;;
6185;SDS011;3126;52.738;8.316;2023-12-22T07:20:13;16.15;;;3.20;;
6185;SDS011;3126;52.738;8.316;2023-12-22T07:25:14;9.75;;;1.80;;
6185;SDS011;3126;52.738;8.316;2023-12-22T07:30:15;14.27;;;2.72;;
6185;SDS011;3126;52.738;8.316;2023-12-22T07:35:16;6.00;;;2.70;;
6185;SDS011;3126;52.738;8.316;2023-12-22T07:40:17;13.95;;;2.50;;
6185;SDS011;3126;52.738;8.316;2023-12-22T07:45:19;13.75;;;2.55;;
6185;SDS011;3126;52.738;8.316;2023-12-22T07:50:20;12.90;;;2.92;;
6185;SDS011;3126;52.738;8.316;2023-12-22T07:55:21;14.77;;;2.42;;
6185;SDS011;3126;52.738;8.316;2023-12-22T08:00:22;12.63;;;2.40;;
6185;SDS011;3126;52.738;8.316;2023-12-22T08:05:23;9.48;;;2.35;;
6185;SDS011;3126;52.738;8.316;2023-12-22T08:10:24;21.77;;;2.70;;
6185;SDS011;3126;52.738;8.316;2023-12-22T08:15:27;14.85;;;2.45;;
6185;SDS011;3126;52.738;8.316;2023-12-22T08:20:32;13.25;;;2.63;;
6185;SDS011;3126;52.738;8.316;2023-12-22T08:25:33;8.70;;;1.38;;
6185;SDS011;3126;52.738;8.316;2023-12-22T08:30:34;5.43;;;1.38;;
6185;SDS011;3126;52.738;8.316;2023-12-22T08:35:35;5.82;;;1.42;;
6185;SDS011;3126;52.738;8.316;2023-12-22T08:40:35;7.22;;;1.65;;
6185;SDS011;3126;52.738;8.316;2023-12-22T08:45:36;4.68;;;1.05;;
6185;SDS011;3126;52.738;8.316;2023-12-22T08:50:37;3.13;;;0.75;;
6185;SDS011;3126;52.738;8.316;2023-12-22T08:55:38;3.20;;;0.95;;
6185;SDS011;3126;52.738;8.316;2023-12-22T09:00:39;6.25;;;1.30;;
6185;SDS011;3126;52.738;8.316;2023-12-22T09:05:41;3.97;;;1.20;;
6185;SDS011;3126;52.738;8.316;2023-12-22T09:10:42;6.30;;;0.68;;
6185;SDS011;3126;52.738;8.316;2023-12-22T09:15:45;5.28;;;0.77;;
6185;SDS011;3126;52.738;8.316;2023-12-22T09:20:48;8.23;;;1.17;;
6185;SDS011;3126;52.738;8.316;2023-12-22T09:25:49;8.25;;;1.60;;
6185;SDS011;3126;52.738;8.316;2023-12-22T09:30:50;4.38;;;0.95;;
6185;SDS011;3126;52.738;8.316;2023-12-22T09:35:51;7.43;;;1.33;;
6185;SDS011;3126;52.738;8.316;2023-12-22T09:40:52;2.92;;;0.90;;
6185;SDS011;3126;52.738;8.316;2023-12-22T09:45:53;10.45;;;1.63;;
6185;SDS011;3126;52.738;8.316;2023-12-22T09:50:54;12.10;;;2.35;;
6185;SDS011;3126;52.738;8.316;2023-12-22T09:55:55;8.55;;;2.25;;
6185;SDS011;3126;52.738;8.316;2023-12-22T10:00:56;10.45;;;1.67;;
6185;SDS011;3126;52.738;8.316;2023-12-22T10:05:58;8.68;;;2.00;;
6185;SDS011;3126;52.738;8.316;2023-12-22T10:10:59;12.23;;;2.95;;
6185;SDS011;3126;52.738;8.316;2023-12-22T10:16:00;13.65;;;2.28;;
6185;SDS011;3126;52.738;8.316;2023-12-22T10:21:01;11.50;;;2.13;;
6185;SDS011;3126;52.738;8.316;2023-12-22T10:26:02;9.85;;;1.98;;
6185;SDS011;3126;52.738;8.316;2023-12-22T10:31:03;9.95;;;2.20;;
6185;SDS011;3126;52.738;8.316;2023-12-22T10:36:07;6.57;;;1.83;;
6185;SDS011;3126;52.738;8.316;2023-12-22T10:41:08;15.20;;;4.32;;
6185;SDS011;3126;52.738;8.316;2023-12-22T10:46:09;10.55;;;4.13;;
6185;SDS011;3126;52.738;8.316;2023-12-22T10:51:11;13.50;;;3.20;;
6185;SDS011;3126;52.738;8.316;2023-12-22T10:56:12;14.23;;;3.25;;
6185;SDS011;3126;52.738;8.316;2023-12-22T11:01:14;10.05;;;2.42;;
6185;SDS011;3126;52.738;8.316;2023-12-22T11:06:15;13.25;;;3.40;;
6185;SDS011;3126;52.738;8.316;2023-12-22T11:11:18;11.30;;;2.08;;
6185;SDS011;3126;52.738;8.316;2023-12-22T11:16:21;7.95;;;2.38;;
6185;SDS011;3126;52.738;8.316;2023-12-22T11:21:22;6.22;;;2.72;;
6185;SDS011;3126;52.738;8.316;2023-12-22T11:26:23;10.68;;;2.00;;
6185;SDS011;3126;52.738;8.316;2023-12-22T11:31:25;8.25;;;1.75;;
6185;SDS011;3126;52.738;8.316;2023-12-22T11:36:28;7.22;;;2.13;;
6185;SDS011;3126;52.738;8.316;2023-12-22T11:41:30;5.82;;;2.40;;
6185;SDS011;3126;52.738;8.316;2023-12-22T11:46:33;9.02;;;1.88;;
6185;SDS011;3126;52.738;8.316;2023-12-22T11:51:34;7.43;;;1.98;;
6185;SDS011;3126;52.738;8.316;2023-12-22T11:56:35;3.53;;;1.17;;
6185;SDS011;3126;52.738;8.316;2023-12-22T12:01:36;7.47;;;1.48;;
6185;SDS011;3126;52.738;8.316;2023-12-22T12:06:38;10.45;;;1.67;;
6185;SDS011;3126;52.738;8.316;2023-12-22T12:12:26;3.15;;;1.15;;
6185;SDS011;3126;52.738;8.316;2023-12-22T12:17:08;7.35;;;1.40;;
6185;SDS011;3126;52.738;8.316;2023-12-22T12:22:13;5.28;;;2.13;;
6185;SDS011;3126;52.738;8.316;2023-12-22T12:27:17;9.98;;;5.25;;
6185;SDS011;3126;52.738;8.316;2023-12-22T12:32:18;15.40;;;5.65;;
6185;SDS011;3126;52.738;8.316;2023-12-22T12:37:23;15.52;;;3.78;;
6185;SDS011;3126;52.738;8.316;2023-12-22T12:42:24;12.07;;;5.85;;
6185;SDS011;3126;52.738;8.316;2023-12-22T12:47:27;12.60;;;4.70;;
6185;SDS011;3126;52.738;8.316;2023-12-22T12:52:28;10.65;;;3.58;;
6185;SDS011;3126;52.738;8.316;2023-12-22T12:57:29;9.57;;;3.42;;
6185;SDS011;3126;52.738;8.316;2023-12-22T13:02:31;7.20;;;3.47;;
6185;SDS011;3126;52.738;8.316;2023-12-22T13:07:36;8.65;;;3.28;;
6185;SDS011;3126;52.738;8.316;2023-12-22T13:12:37;7.70;;;3.20;;
6185;SDS011;3126;52.738;8.316;2023-12-22T13:17:38;9.80;;;3.17;;
6185;SDS011;3126;52.738;8.316;2023-12-22T13:22:39;7.25;;;2.42;;
6185;SDS011;3126;52.738;8.316;2023-12-22T13:27:44;8.00;;;1.58;;
6185;SDS011;3126;52.738;8.316;2023-12-22T13:32:45;9.18;;;2.15;;
6185;SDS011;3126;52.738;8.316;2023-12-22T13:37:46;7.10;;;2.03;;
6185;SDS011;3126;52.738;8.316;2023-12-22T13:42:57;5.93;;;1.67;;
6185;SDS011;3126;52.738;8.316;2023-12-22T13:53:07;6.18;;;1.90;;
6185;SDS011;3126;52.738;8.316;2023-12-22T13:58:08;9.60;;;1.90;;
6185;SDS011;3126;52.738;8.316;2023-12-22T14:03:11;7.03;;;2.10;;
6185;SDS011;3126;52.738;8.316;2023-12-22T14:08:12;7.05;;;2.35;;
6185;SDS011;3126;52.738;8.316;2023-12-22T14:13:14;8.77;;;1.40;;
6185;SDS011;3126;52.738;8.316;2023-12-22T14:18:15;11.57;;;1.73;;
6185;SDS011;3126;52.738;8.316;2023-12-22T14:23:16;8.10;;;1.60;;
6185;SDS011;3126;52.738;8.316;2023-12-22T14:28:17;8.27;;;1.50;;
6185;SDS011;3126;52.738;8.316;2023-12-22T14:33:19;7.40;;;1.98;;
6185;SDS011;3126;52.738;8.316;2023-12-22T14:38:20;7.03;;;2.92;;
6185;SDS011;3126;52.738;8.316;2023-12-22T14:43:21;8.35;;;2.85;;
6185;SDS011;3126;52.738;8.316;2023-12-22T14:48:22;10.30;;;2.63;;
6185;SDS011;3126;52.738;8.316;2023-12-22T14:53:23;7.15;;;2.00;;
6185;SDS011;3126;52.738;8.316;2023-12-22T14:58:24;4.95;;;1.40;;
6185;SDS011;3126;52.738;8.316;2023-12-22T15:03:25;8.15;;;0.90;;
6185;SDS011;3126;52.738;8.316;2023-12-22T15:08:26;5.78;;;1.00;;
6185;SDS011;3126;52.738;8.316;2023-12-22T15:13:27;6.53;;;1.25;;
6185;SDS011;3126;52.738;8.316;2023-12-22T15:18:28;1.33;;;0.82;;
6185;SDS011;3126;52.738;8.316;2023-12-22T15:23:29;2.78;;;0.65;;
6185;SDS011;3126;52.738;8.316;2023-12-22T15:28:30;3.45;;;1.15;;
6185;SDS011;3126;52.738;8.316;2023-12-22T15:33:31;2.70;;;1.00;;
6185;SDS011;3126;52.738;8.316;2023-12-22T15:38:32;3.42;;;0.80;;
6185;SDS011;3126;52.738;8.316;2023-12-22T15:43:33;4.38;;;1.52;;
6185;SDS011;3126;52.738;8.316;2023-12-22T15:48:34;4.38;;;1.20;;
6185;SDS011;3126;52.738;8.316;2023-12-22T15:53:38;2.35;;;0.75;;
6185;SDS011;3126;52.738;8.316;2023-12-22T15:58:41;4.45;;;1.20;;
6185;SDS011;3126;52.738;8.316;2023-12-22T16:03:43;4.93;;;1.35;;
6185;SDS011;3126;52.738;8.316;2023-12-22T16:08:50;3.38;;;1.23;;
6185;SDS011;3126;52.738;8.316;2023-12-22T16:13:51;4.57;;;1.00;;
6185;SDS011;3126;52.738;8.316;2023-12-22T16:18:55;6.35;;;1.13;;
6185;SDS011;3126;52.738;8.316;2023-12-22T16:23:56;12.50;;;2.63;;
6185;SDS011;3126;52.738;8.316;2023-12-22T16:28:57;5.18;;;1.92;;
6185;SDS011;3126;52.738;8.316;2023-12-22T16:33:58;7.63;;;2.38;;
6185;SDS011;3126;52.738;8.316;2023-12-22T16:38:59;6.43;;;1.67;;
6185;SDS011;3126;52.738;8.316;2023-12-22T16:44:00;4.35;;;1.45;;
6185;SDS011;3126;52.738;8.316;2023-12-22T16:49:01;9.10;;;1.52;;
6185;SDS011;3126;52.738;8.316;2023-12-22T16:54:04;2.38;;;1.25;;
6185;SDS011;3126;52.738;8.316;2023-12-22T16:59:04;5.00;;;1.30;;
6185;SDS011;3126;52.738;8.316;2023-12-22T17:04:05;1.67;;;0.70;;
6185;SDS011;3126;52.738;8.316;2023-12-22T17:09:06;3.40;;;0.90;;
6185;SDS011;3126;52.738;8.316;2023-12-22T17:14:07;4.70;;;1.65;;
6185;SDS011;3126;52.738;8.316;2023-12-22T17:19:08;3.45;;;1.15;;
6185;SDS011;3126;52.738;8.316;2023-12-22T17:24:09;3.17;;;0.55;;
6185;SDS011;3126;52.738;8.316;2023-12-22T17:29:10;1.40;;;0.93;;
6185;SDS011;3126;52.738;8.316;2023-12-22T17:34:11;2.28;;;0.52;;
6185;SDS011;3126;52.738;8.316;2023-12-22T17:39:12;1.13;;;0.43;;
6185;SDS011;3126;52.738;8.316;2023-12-22T17:44:13;3.55;;;0.93;;
6185;SDS011;3126;52.738;8.316;2023-12-22T17:49:14;1.25;;;0.55;;
6185;SDS011;3126;52.738;8.316;2023-12-22T17:54:15;2.88;;;0.60;;
6185;SDS011;3126;52.738;8.316;2023-12-22T17:59:16;5.70;;;0.88;;
6185;SDS011;3126;52.738;8.316;2023-12-22T18:04:17;4.13;;;2.45;;
6185;SDS011;3126;52.738;8.316;2023-12-22T18:09:18;7.20;;;2.42;;
6185;SDS011;3126;52.738;8.316;2023-12-22T18:14:19;8.13;;;1.92;;
6185;SDS011;3126;52.738;8.316;2023-12-22T18:19:20;4.72;;;1.30;;
6185;SDS011;3126;52.738;8.316;2023-12-22T18:24:21;3.33;;;1.27;;
6185;SDS011;3126;52.738;8.316;2023-12-22T18:29:22;9.30;;;2.47;;
6185;SDS011;3126;52.738;8.316;2023-12-22T18:34:23;4.07;;;1.42;;
6185;SDS011;3126;52.738;8.316;2023-12-22T18:39:24;4.20;;;1.35;;
6185;SDS011;3126;52.738;8.316;2023-12-22T18:44:25;2.50;;;0.95;;
6185;SDS011;3126;52.738;8.316;2023-12-22T18:49:26;5.38;;;1.38;;
6185;SDS011;3126;52.738;8.316;2023-12-22T18:54:27;4.38;;;1.10;;
6185;SDS011;3126;52.738;8.316;2023-12-22T18:59:28;2.50;;;0.80;;
6185;SDS011;3126;52.738;8.316;2023-12-22T19:04:29;7.32;;;1.52;;
6185;SDS011;3126;52.738;8.316;2023-12-22T19:09:30;6.53;;;0.98;;
6185;SDS011;3126;52.738;8.316;2023-12-22T19:14:31;5.40;;;1.48;;
6185;SDS011;3126;52.738;8.316;2023-12-22T19:19:32;3.97;;;1.25;;
6185;SDS011;3126;52.738;8.316;2023-12-22T19:24:33;5.10;;;1.20;;
6185;SDS011;3126;52.738;8.316;2023-12-22T19:29:34;3.60;;;0.88;;
6185;SDS011;3126;52.738;8.316;2023-12-22T19:34:35;1.13;;;0.50;;
6185;SDS011;3126;52.738;8.316;2023-12-22T19:39:36;2.30;;;0.75;;
6185;SDS011;3126;52.738;8.316;2023-12-22T19:44:37;1.00;;;0.73;;
6185;SDS011;3126;52.738;8.316;2023-12-22T19:49:38;1.58;;;0.63;;
6185;SDS011;3126;52.738;8.316;2023-12-22T19:54:39;1.63;;;0.88;;
6185;SDS011;3126;52.738;8.316;2023-12-22T19:59:39;2.38;;;0.73;;
6185;SDS011;3126;52.738;8.316;2023-12-22T20:04:40;3.10;;;0.82;;
6185;SDS011;3126;52.738;8.316;2023-12-22T20:09:41;3.70;;;1.00;;
6185;SDS011;3126;52.738;8.316;2023-12-22T20:14:42;0.73;;;0.63;;
6185;SDS011;3126;52.738;8.316;2023-12-22T20:19:43;3.33;;;1.13;;
6185;SDS011;3126;52.738;8.316;2023-12-22T20:24:44;3.83;;;0.52;;
6185;SDS011;3126;52.738;8.316;2023-12-22T20:29:47;3.08;;;0.57;;
6185;SDS011;3126;52.738;8.316;2023-12-22T20:34:48;5.95;;;0.68;;
6185;SDS011;3126;52.738;8.316;2023-12-22T20:39:49;1.42;;;0.30;;
6185;SDS011;3126;52.738;8.316;2023-12-22T20:44:50;3.33;;;0.73;;
6185;SDS011;3126;52.738;8.316;2023-12-22T20:49:51;5.93;;;1.10;;
6185;SDS011;3126;52.738;8.316;2023-12-22T20:54:52;0.40;;;0.40;;
6185;SDS011;3126;52.738;8.316;2023-12-22T20:59:53;1.33;;;1.00;;
6185;SDS011;3126;52.738;8.316;2023-12-22T21:04:54;1.48;;;0.70;;
6185;SDS011;3126;52.738;8.316;2023-12-22T21:09:55;0.68;;;0.30;;
6185;SDS011;3126;52.738;8.316;2023-12-22T21:14:56;1.10;;;0.70;;
6185;SDS011;3126;52.738;8.316;2023-12-22T21:19:57;3.42;;;0.70;;
6185;SDS011;3126;52.738;8.316;2023-12-22T21:24:58;2.95;;;0.50;;
6185;SDS011;3126;52.738;8.316;2023-12-22T21:30:00;0.85;;;0.38;;
6185;SDS011;3126;52.738;8.316;2023-12-22T21:35:04;2.80;;;1.20;;
6185;SDS011;3126;52.738;8.316;2023-12-22T21:40:05;1.67;;;1.23;;
6185;SDS011;3126;52.738;8.316;2023-12-22T21:45:06;3.70;;;0.68;;
6185;SDS011;3126;52.738;8.316;2023-12-22T21:50:08;0.82;;;0.50;;
6185;SDS011;3126;52.738;8.316;2023-12-22T21:55:09;4.45;;;1.60;;
6185;SDS011;3126;52.738;8.316;2023-12-22T22:00:10;3.70;;;0.93;;
6185;SDS011;3126;52.738;8.316;2023-12-22T22:05:12;4.70;;;1.00;;
6185;SDS011;3126;52.738;8.316;2023-12-22T22:10:13;3.15;;;0.80;;
6185;SDS011;3126;52.738;8.316;2023-12-22T22:15:14;1.67;;;1.10;;
6185;SDS011;3126;52.738;8.316;2023-12-22T22:20:15;3.97;;;1.40;;
6185;SDS011;3126;52.738;8.316;2023-12-22T22:25:16;1.35;;;1.25;;
6185;SDS011;3126;52.738;8.316;2023-12-22T22:30:17;4.53;;;1.20;;
6185;SDS011;3126;52.738;8.316;2023-12-22T22:35:18;6.93;;;0.98;;
6185;SDS011;3126;52.738;8.316;2023-12-22T22:40:18;8.38;;;0.95;;
6185;SDS011;3126;52.738;8.316;2023-12-22T22:45:19;3.85;;;1.35;;
6185;SDS011;3126;52.738;8.316;2023-12-22T22:50:20;5.70;;;1.27;;
6185;SDS011;3126;52.738;8.316;2023-12-22T22:55:22;3.10;;;0.60;;
6185;SDS011;3126;52.738;8.316;2023-12-22T23:00:23;1.10;;;1.00;;
6185;SDS011;3126;52.738;8.316;2023-12-22T23:05:27;5.82;;;1.40;;
6185;SDS011;3126;52.738;8.316;2023-12-22T23:10:30;7.45;;;1.55;;
6185;SDS011;3126;52.738;8.316;2023-12-22T23:15:31;2.00;;;1.00;;
6185;SDS011;3126;52.738;8.316;2023-12-22T23:20:32;4.38;;;1.33;;
6185;SDS011;3126;52.738;8.316;2023-12-22T23:25:33;9.30;;;2.28;;
6185;SDS011;3126;52.738;8.316;2023-12-22T23:30:33;6.43;;;1.83;;
6185;SDS011;3126;52.738;8.316;2023-12-22T23:35:35;7.60;;;1.58;;
6185;SDS011;3126;52.738;8.316;2023-12-22T23:40:36;7.32;;;0.98;;
6185;SDS011;3126;52.738;8.316;2023-12-22T23:45:37;3.17;;;0.80;;
6185;SDS011;3126;52.738;8.316;2023-12-22T23:50:38;9.75;;;1.77;;
6185;SDS011;3126;52.738;8.316;2023-12-22T23:55:39;8.50;;;1.05;;
